Home   Weather   Russia   Rostov-on-Don   Past weeks
Flag for Russia

Past Weather in Rostov-on-Don, Russia — Yesterday and Last 2 Weeks

Currently: 77 °F. Sunny. (Weather station: Krasnodar Airport, Russia). See more current weather

Past Weather in Rostov-on-Don — Graph

°F

Rostov-on-Don Temperature Yesterday

Maximum temperature yesterday: 95 °F (at 2:00 pm)
Minimum temperature yesterday: 68 °F (at 5:00 am)
Average temperature yesterday: 82 °F

High & Low Weather Summary for the Past Weeks

 TemperatureHumidityPressure
High100 °F (Jul 17, 4:30 pm)94% (Jul 13, 3:30 am)30.01 "Hg (Jul 13, 3:30 am)
Low61 °F (Jul 24, 4:30 am)19% (Jul 18, 5:00 pm)29.62 "Hg (Jul 22, 3:30 am)
Average82 °F56%29.77 "Hg
* Reported Jul 12 11:00 am — Jul 27 11:30 am, Rostov-on-Don. Weather by CustomWeather, © 2021

Note: Actual official high and low records may vary slightly from our data, if they occured in-between our weather recording intervals... More about our weather records

Rostov-on-Don Weather History for the Previous 24 Hours

Scroll right to see more
 ConditionsComfort  
Time TempWeatherWind HumidityBarometerVisibility
11:30 am
Tue, Jul 27
77 °FSunny.22 mph57%30.01 "Hg10 mi
11:00 am77 °FSunny.15 mph57%29.98 "Hg10 mi
10:30 am77 °FSunny.17 mph57%29.98 "Hg10 mi
9:00 am77 °FSprinkles. Partly sunny.20 mph65%29.92 "HgN/A
8:30 am77 °FSprinkles. Scattered clouds.17 mph65%29.92 "HgN/A
8:00 am79 °FPassing clouds.17 mph61%29.92 "HgN/A
7:30 am79 °FSunny.15 mph54%29.89 "Hg10 mi
7:00 am77 °FSunny.15 mph57%29.89 "Hg10 mi
6:30 am77 °FSunny.13 mph57%29.89 "Hg10 mi
6:00 am77 °FSunny.10 mph54%29.89 "Hg10 mi
5:30 am77 °FSunny.10 mph54%29.89 "Hg10 mi
5:00 am75 °FClear.10 mph57%29.89 "Hg10 mi
4:30 am75 °FClear.8 mph57%29.89 "Hg10 mi
4:00 am77 °FClear.10 mph57%29.89 "Hg10 mi
3:00 am79 °FClear.10 mph51%29.89 "Hg10 mi
2:30 am79 °FClear.8 mph51%29.89 "Hg10 mi
2:00 am81 °FClear.10 mph48%29.89 "Hg10 mi
1:30 am81 °FClear.10 mph45%29.89 "Hg10 mi
1:00 am77 °FPassing clouds.10 mph51%29.86 "HgN/A
12:30 am75 °FPassing clouds.8 mph61%29.89 "HgN/A
12:00 am77 °FPassing clouds.3 mph57%29.92 "HgN/A
11:30 pm
Mon, Jul 26
77 °FPassing clouds.1 mph57%29.95 "HgN/A
11:00 pm77 °FPassing clouds.6 mph57%29.95 "HgN/A
10:30 pm81 °FPassing clouds.6 mph51%29.95 "HgN/A
10:00 pm84 °FPassing clouds.8 mph37%29.92 "HgN/A
9:30 pm81 °FPassing clouds.6 mph45%29.92 "HgN/A
9:00 pm82 °FThundershowers. Passing clouds.6 mph42%29.92 "HgN/A
8:30 pm82 °FPassing clouds.6 mph45%29.92 "HgN/A
8:00 pm84 °FPassing clouds.6 mph43%29.92 "HgN/A
7:30 pm84 °FPassing clouds.8 mph43%29.92 "HgN/A
7:00 pm84 °FPassing clouds.6 mph43%29.92 "HgN/A
6:30 pm88 °FThundershowers. Passing clouds.8 mph33%29.92 "HgN/A
6:00 pm90 °FPassing clouds.8 mph31%29.89 "HgN/A
5:30 pm91 °FPassing clouds.13 mph30%29.89 "HgN/A
5:00 pm93 °FPassing clouds.15 mph28%29.89 "HgN/A
4:30 pm93 °FSunny.17 mph28%29.89 "Hg10 mi
4:00 pm93 °FSunny.17 mph28%29.89 "Hg10 mi
3:30 pm93 °FSunny.17 mph26%29.92 "Hg10 mi
3:00 pm93 °FSunny.20 mph26%29.92 "Hg10 mi
2:30 pm93 °FSunny.17 mph28%29.92 "Hg10 mi
2:00 pm95 °FPassing clouds.17 mph26%29.92 "HgN/A
1:30 pm93 °FSunny.20 mph28%29.92 "Hg10 mi
1:00 pm91 °FSunny.20 mph32%29.95 "Hg10 mi
12:30 pm91 °FSunny.20 mph34%29.95 "Hg10 mi
12:00 pm91 °FPassing clouds.17 mph38%29.95 "HgN/A
Weather by CustomWeather, © 2021

See weather overview